createdAt,value
2023-02-05T12:45:00.908Z,17.27
2023-02-05T12:47:49.097Z,18.13
2023-02-05T12:50:36.324Z,14.15
2023-02-05T12:53:21.075Z,19.65
2023-02-05T12:56:07.072Z,25.40
2023-02-05T12:58:38.950Z,22.98
2023-02-05T13:01:27.234Z,15.10
2023-02-05T13:04:01.248Z,20.27
2023-02-05T13:06:34.969Z,20.15
2023-02-05T13:09:07.985Z,18.88
2023-02-05T13:11:42.311Z,17.15
2023-02-05T13:14:18.873Z,12.90
2023-02-05T13:16:53.754Z,14.90
2023-02-05T13:19:29.601Z,22.92
2023-02-05T13:22:22.660Z,14.98
2023-02-05T13:25:10.864Z,22.70
2023-02-05T13:28:00.755Z,17.52
2023-02-05T13:30:36.658Z,14.20
2023-02-05T13:33:08.308Z,17.67
2023-02-05T13:35:45.106Z,18.95
2023-02-05T13:38:41.262Z,21.02
2023-02-05T13:41:43.222Z,21.50
2023-02-05T13:47:20.028Z,17.88
2023-02-05T13:50:29.406Z,12.82
2023-02-05T13:53:13.884Z,11.30
2023-02-05T13:56:12.155Z,12.98
2023-02-05T13:58:47.496Z,11.88
2023-02-05T14:01:22.407Z,18.58
2023-02-05T14:03:58.594Z,23.25
2023-02-05T14:06:32.076Z,14.10
2023-02-05T14:09:04.981Z,11.32
2023-02-05T14:11:53.941Z,13.50
2023-02-05T14:14:26.231Z,15.18
2023-02-05T14:16:56.136Z,20.52
2023-02-05T14:19:27.813Z,20.42
2023-02-05T14:22:01.527Z,13.43
2023-02-05T14:24:41.167Z,22.92
2023-02-05T14:27:49.109Z,13.52
2023-02-05T14:30:48.566Z,12.63
2023-02-05T14:33:38.007Z,14.75
2023-02-05T14:36:34.324Z,12.57
2023-02-05T14:39:06.103Z,8.20
2023-02-05T14:41:50.849Z,16.35
2023-02-05T14:44:26.513Z,14.77
2023-02-05T14:47:02.590Z,13.27
2023-02-05T14:49:38.137Z,13.70
2023-02-05T14:52:09.651Z,20.63
2023-02-05T14:57:23.118Z,15.57
2023-02-05T14:59:55.595Z,17.92
2023-02-05T15:02:49.626Z,19.02
2023-02-05T15:05:22.994Z,14.63
2023-02-05T15:07:54.785Z,15.32
2023-02-05T15:10:28.320Z,13.70
2023-02-05T15:13:04.459Z,14.27
2023-02-05T15:15:35.873Z,19.33
2023-02-05T15:20:38.151Z,8.75
2023-02-05T15:23:19.562Z,16.15
2023-02-05T15:25:55.710Z,10.88
2023-02-05T15:28:31.861Z,18.83
2023-02-05T15:31:10.265Z,15.73
2023-02-05T15:33:47.672Z,17.75
2023-02-05T15:36:22.859Z,14.40
2023-02-05T15:39:02.773Z,14.45
2023-02-05T15:41:33.614Z,8.60
2023-02-05T15:44:05.068Z,15.95
2023-02-05T15:46:34.741Z,11.95
2023-02-05T15:49:03.108Z,14.35
2023-02-05T15:51:34.237Z,13.93
2023-02-05T15:54:04.260Z,14.00
2023-02-05T15:56:36.514Z,12.15
2023-02-05T15:59:14.919Z,15.00
2023-02-05T16:01:48.104Z,13.65
2023-02-05T16:04:20.867Z,9.07
2023-02-05T16:06:49.241Z,11.90
2023-02-05T16:09:19.381Z,13.27
2023-02-05T16:11:48.520Z,11.07
2023-02-05T16:14:19.788Z,12.23
2023-02-05T16:17:01.230Z,10.95
2023-02-05T16:19:33.621Z,12.10
2023-02-05T16:22:08.997Z,19.20
2023-02-05T16:24:42.500Z,11.23
2023-02-05T16:27:15.258Z,12.70
2023-02-05T16:29:48.559Z,21.42
2023-02-05T16:32:26.514Z,13.95
2023-02-05T16:34:54.749Z,13.85
2023-02-05T16:37:28.380Z,17.52
2023-02-05T16:39:58.340Z,13.15
2023-02-05T16:42:34.298Z,13.50
2023-02-05T16:45:21.442Z,16.98
2023-02-05T16:48:22.890Z,11.00
2023-02-05T16:50:52.263Z,20.75
2023-02-05T16:53:26.340Z,15.18
2023-02-05T16:55:59.399Z,19.60
2023-02-05T16:58:32.844Z,19.40
2023-02-05T17:01:06.057Z,17.33
2023-02-05T17:03:37.540Z,16.30
2023-02-05T17:08:38.582Z,12.77
2023-02-05T17:11:09.851Z,16.98
2023-02-05T17:13:40.073Z,18.35
2023-02-05T17:16:26.851Z,14.15
2023-02-05T17:19:01.598Z,14.23
2023-02-05T17:21:31.597Z,10.60
2023-02-05T17:24:01.711Z,20.65
2023-02-05T17:26:32.940Z,20.95
2023-02-05T17:29:02.805Z,22.15
2023-02-05T17:31:36.648Z,15.75
2023-02-05T17:34:05.146Z,38.20
2023-02-05T17:36:33.321Z,86.13
2023-02-05T17:39:01.547Z,58.40
2023-02-05T17:41:50.789Z,46.22
2023-02-05T17:44:22.257Z,34.25
2023-02-05T17:49:22.770Z,21.92
2023-02-05T17:51:51.283Z,20.25
2023-02-05T17:54:21.904Z,21.63
2023-02-05T17:56:51.180Z,17.63
2023-02-05T17:59:21.198Z,20.67
2023-02-05T18:01:51.916Z,23.92
2023-02-05T18:04:20.422Z,15.63
2023-02-05T18:06:50.320Z,16.35
2023-02-05T18:09:20.177Z,24.95
2023-02-05T18:11:48.432Z,22.33
2023-02-05T18:14:16.755Z,24.73
2023-02-05T18:16:45.001Z,27.38
2023-02-05T18:19:15.025Z,21.27
2023-02-05T18:21:43.198Z,20.08
2023-02-05T18:24:11.379Z,19.17
2023-02-05T18:26:39.567Z,19.10
2023-02-05T18:29:07.795Z,23.27
2023-02-05T18:31:36.256Z,20.13
2023-02-05T18:34:04.405Z,17.33
2023-02-05T18:36:33.925Z,19.45
2023-02-05T18:39:02.281Z,25.17
2023-02-05T18:41:31.595Z,31.38
2023-02-05T18:44:00.791Z,28.35
2023-02-05T18:46:30.233Z,52.38
2023-02-05T18:48:58.345Z,54.80
2023-02-05T18:51:26.499Z,70.75
2023-02-05T18:53:56.172Z,64.60
2023-02-05T18:56:26.702Z,40.20
2023-02-05T18:58:59.276Z,55.57
2023-02-05T19:01:29.297Z,25.25
2023-02-05T19:03:57.757Z,20.33
2023-02-05T19:06:25.866Z,21.15
2023-02-05T19:08:57.290Z,28.10
2023-02-05T19:11:27.503Z,67.60
2023-02-05T19:13:57.472Z,87.85
2023-02-05T19:16:27.804Z,60.35
2023-02-05T19:18:56.360Z,91.22
2023-02-05T19:21:26.849Z,105.45
2023-02-05T19:23:58.518Z,83.53
2023-02-05T19:26:28.358Z,69.25
2023-02-05T19:28:58.506Z,44.83
2023-02-05T19:31:28.495Z,35.95
2023-02-05T19:33:57.271Z,33.72
2023-02-05T19:36:28.058Z,28.80
2023-02-05T19:38:57.777Z,31.10
2023-02-05T19:41:27.745Z,30.67
2023-02-05T19:43:57.875Z,29.83
2023-02-05T19:46:28.280Z,39.92
2023-02-05T19:48:57.381Z,33.42
2023-02-05T19:51:25.584Z,30.55
2023-02-05T19:53:53.750Z,22.40
2023-02-05T19:56:24.176Z,35.05
2023-02-05T19:58:54.031Z,29.00
2023-02-05T20:01:24.663Z,39.60
2023-02-05T20:03:54.126Z,36.83
2023-02-05T20:06:24.566Z,41.70
2023-02-05T20:08:52.962Z,48.22
2023-02-05T20:11:21.733Z,39.00
2023-02-05T20:13:51.605Z,34.25
2023-02-05T20:16:21.551Z,35.10
2023-02-05T20:18:54.713Z,40.92
2023-02-05T20:21:23.443Z,48.03
2023-02-05T20:23:52.241Z,50.22
2023-02-05T20:26:22.369Z,50.85
2023-02-05T20:29:09.256Z,59.17
2023-02-05T20:31:43.046Z,68.55
2023-02-05T20:34:18.116Z,77.68
2023-02-05T20:36:47.140Z,78.10
2023-02-05T20:39:17.284Z,75.53
2023-02-05T20:41:46.309Z,72.10
2023-02-05T20:44:16.505Z,76.00
2023-02-05T20:46:45.236Z,66.70
2023-02-05T20:49:14.185Z,66.40
2023-02-05T20:51:43.148Z,67.35
2023-02-05T20:54:11.739Z,76.28
2023-02-05T20:56:40.084Z,65.43
2023-02-05T20:59:09.401Z,63.20
2023-02-05T21:01:40.606Z,71.18
2023-02-05T21:04:10.512Z,83.72
2023-02-05T21:06:40.337Z,67.20
2023-02-05T21:09:10.324Z,57.03
2023-02-05T21:11:39.058Z,65.95
2023-02-05T21:14:08.293Z,64.90
2023-02-05T21:16:39.037Z,68.07
2023-02-05T21:19:08.307Z,71.82
2023-02-05T21:21:38.368Z,61.95
2023-02-05T21:24:09.043Z,58.97
2023-02-05T21:26:38.731Z,76.17
2023-02-05T21:29:10.234Z,56.60
2023-02-05T21:34:10.344Z,62.08
2023-02-05T21:36:38.492Z,69.90
2023-02-05T21:39:06.792Z,58.88
2023-02-05T21:41:35.205Z,70.45
2023-02-05T21:44:03.433Z,68.47
2023-02-05T21:46:31.745Z,70.82
2023-02-05T21:49:02.175Z,73.38
2023-02-05T21:51:33.214Z,93.15
2023-02-05T21:54:03.875Z,132.15
2023-02-05T21:56:34.803Z,90.77
2023-02-05T21:59:03.165Z,70.05
2023-02-05T22:01:33.031Z,69.72
2023-02-05T22:04:04.566Z,91.40
2023-02-05T22:06:34.833Z,78.60
2023-02-05T22:09:04.267Z,78.50
2023-02-05T22:11:32.696Z,73.40
2023-02-05T22:14:01.159Z,79.80
2023-02-05T22:16:31.740Z,82.95
2023-02-05T22:19:02.716Z,93.63
2023-02-05T22:21:33.389Z,113.78
2023-02-05T22:24:02.726Z,109.75
2023-02-05T22:26:32.547Z,112.18
2023-02-05T22:29:02.012Z,115.38
2023-02-05T22:31:31.031Z,112.45
2023-02-05T22:33:59.728Z,114.55
2023-02-05T22:36:31.276Z,117.28
2023-02-05T22:38:59.848Z,114.95
2023-02-05T22:41:30.018Z,107.53
2023-02-05T22:44:00.028Z,121.43
2023-02-05T22:46:30.576Z,111.65
2023-02-05T22:49:00.411Z,96.20
2023-02-05T22:51:32.316Z,116.15
2023-02-05T22:54:01.306Z,99.90
2023-02-05T22:56:30.091Z,105.43
2023-02-05T22:59:00.264Z,114.10
2023-02-05T23:01:31.951Z,108.13
2023-02-05T23:04:00.815Z,116.70
2023-02-05T23:06:32.399Z,109.95
2023-02-05T23:09:02.389Z,114.18
2023-02-05T23:11:32.766Z,111.03
2023-02-05T23:14:02.124Z,99.60
2023-02-05T23:16:32.751Z,102.78
2023-02-05T23:19:02.938Z,81.85
2023-02-05T23:21:34.560Z,119.72
2023-02-05T23:24:03.327Z,120.13
2023-02-05T23:26:33.594Z,116.25
2023-02-05T23:29:02.001Z,124.95
2023-02-05T23:31:30.824Z,129.95
2023-02-05T23:33:59.211Z,120.22
2023-02-05T23:36:27.483Z,114.78
2023-02-05T23:38:57.089Z,122.32
2023-02-05T23:41:37.576Z,112.45
2023-02-05T23:44:08.292Z,110.68
2023-02-05T23:46:37.279Z,106.65
2023-02-05T23:49:05.959Z,100.63
2023-02-05T23:51:34.274Z,105.50
2023-02-05T23:54:04.188Z,106.05
2023-02-05T23:56:32.854Z,109.95
2023-02-05T23:59:01.148Z,102.13
